createdAt,value
2023-04-12T00:00:11.219Z,100190.53
2023-04-12T00:02:39.470Z,100181.44
2023-04-12T00:05:06.464Z,100170.63
2023-04-12T00:07:32.938Z,100175.56
2023-04-12T00:09:59.595Z,100176.25
2023-04-12T00:12:26.039Z,100169.91
2023-04-12T00:14:52.452Z,100167.97
2023-04-12T00:17:19.402Z,100153.84
2023-04-12T00:19:47.624Z,100145.56
2023-04-12T00:22:14.958Z,100148.81
2023-04-12T00:24:41.779Z,100142.94
2023-04-12T00:27:08.451Z,100144.94
2023-04-12T00:29:35.014Z,100141.09
2023-04-12T00:32:01.716Z,100126.38
2023-04-12T00:34:28.725Z,100135.09
2023-04-12T00:36:55.984Z,100131.97
2023-04-12T00:39:22.745Z,100125.41
2023-04-12T00:41:49.383Z,100115.94
2023-04-12T00:44:18.094Z,100094.13
2023-04-12T00:46:46.360Z,100089.56
2023-04-12T00:49:13.106Z,100093.25
2023-04-12T00:51:40.363Z,100083.06
2023-04-12T00:54:07.401Z,100078.03
2023-04-12T00:56:34.826Z,100072.38
2023-04-12T00:59:02.113Z,100064.84
2023-04-12T01:01:28.673Z,100054.06
2023-04-12T01:04:01.011Z,100056.91
2023-04-12T01:07:20.898Z,100051.03
2023-04-12T01:10:24.297Z,100049.22
2023-04-12T01:13:12.951Z,100034.59
2023-04-12T01:15:51.716Z,100028.72
2023-04-12T01:18:23.631Z,100032.31
2023-04-12T01:21:13.703Z,100017.13
2023-04-12T01:23:59.156Z,100014.16
2023-04-12T01:26:39.365Z,100017.50
2023-04-12T01:29:10.892Z,100005.75
2023-04-12T01:31:46.491Z,100006.22
2023-04-12T01:34:14.732Z,99997.72
2023-04-12T01:36:43.899Z,99999.66
2023-04-12T01:39:10.786Z,99994.47
2023-04-12T01:41:42.150Z,99994.00
2023-04-12T01:44:08.797Z,99989.06
2023-04-12T01:46:37.474Z,99978.53
2023-04-12T01:49:04.316Z,99970.03
2023-04-12T01:51:52.595Z,99971.78
2023-04-12T01:54:27.493Z,99966.38
2023-04-12T01:56:59.640Z,99952.63
2023-04-12T01:59:34.796Z,99959.19
2023-04-12T02:02:02.745Z,99950.34
2023-04-12T02:04:30.285Z,99948.66
2023-04-12T02:06:57.321Z,99943.16
2023-04-12T02:09:23.987Z,99933.84
2023-04-12T02:11:50.650Z,99920.78
2023-04-12T02:14:17.481Z,99907.88
2023-04-12T02:16:44.754Z,99908.59
2023-04-12T02:19:12.477Z,99909.91
2023-04-12T02:21:43.374Z,99909.75
2023-04-12T02:24:10.604Z,99908.31
2023-04-12T02:26:38.354Z,99902.22
2023-04-12T02:29:08.970Z,99896.09
2023-04-12T02:31:36.882Z,99885.09
2023-04-12T02:34:03.269Z,99882.81
2023-04-12T02:36:29.712Z,99885.56
2023-04-12T02:38:56.550Z,99878.75
2023-04-12T02:41:23.813Z,99876.28
2023-04-12T02:43:51.028Z,99848.84
2023-04-12T02:46:21.779Z,99851.38
2023-04-12T02:48:49.146Z,99842.56
2023-04-12T02:51:15.810Z,99843.34
2023-04-12T02:53:42.815Z,99828.81
2023-04-12T02:56:09.610Z,99836.22
2023-04-12T02:58:36.828Z,99824.13
2023-04-12T03:01:07.824Z,99817.56
2023-04-12T03:03:35.690Z,99806.34
2023-04-12T03:06:02.593Z,99795.56
2023-04-12T03:08:28.968Z,99797.13
2023-04-12T03:10:56.223Z,99774.75
2023-04-12T03:13:22.670Z,99785.53
2023-04-12T03:15:53.036Z,99775.38
2023-04-12T03:18:23.474Z,99771.16
2023-04-12T03:20:50.286Z,99767.84
2023-04-12T03:23:16.684Z,99754.31
2023-04-12T03:25:43.774Z,99756.84
2023-04-12T03:28:10.330Z,99740.84
2023-04-12T03:30:36.768Z,99729.84
2023-04-12T03:33:03.270Z,99723.41
2023-04-12T03:35:29.746Z,99711.91
2023-04-12T03:37:56.104Z,99696.53
2023-04-12T03:40:22.487Z,99689.94
2023-04-12T03:42:48.856Z,99684.69
2023-04-12T03:45:15.335Z,99686.97
2023-04-12T03:47:41.884Z,99689.09
2023-04-12T03:50:12.412Z,99686.34
2023-04-12T03:52:39.206Z,99680.03
2023-04-12T03:55:07.462Z,99664.97
2023-04-12T03:57:34.652Z,99663.66
2023-04-12T04:00:01.348Z,99664.28
2023-04-12T04:02:28.125Z,99658.78
2023-04-12T04:04:54.871Z,99651.13
2023-04-12T04:07:22.415Z,99643.22
2023-04-12T04:09:50.022Z,99642.88
2023-04-12T04:12:16.592Z,99638.81
2023-04-12T04:14:43.056Z,99624.47
2023-04-12T04:17:09.500Z,99623.63
2023-04-12T04:19:35.911Z,99614.31
2023-04-12T04:22:02.475Z,99601.66
2023-04-12T04:24:29.161Z,99594.59
2023-04-12T04:26:55.557Z,99583.47
2023-04-12T04:29:22.059Z,99583.59
2023-04-12T04:31:48.749Z,99574.28
2023-04-12T04:34:16.412Z,99570.34
2023-04-12T04:36:43.741Z,99554.34
2023-04-12T04:39:10.449Z,99569.50
2023-04-12T04:41:41.386Z,99568.09
2023-04-12T04:44:11.215Z,99551.13
2023-04-12T04:46:38.200Z,99545.34
2023-04-12T04:49:05.389Z,99543.44
2023-04-12T04:51:32.420Z,99543.94
2023-04-12T04:53:59.237Z,99532.38
2023-04-12T04:56:26.209Z,99532.94
2023-04-12T04:58:54.062Z,99531.75
2023-04-12T05:01:25.789Z,99535.56
2023-04-12T05:03:52.410Z,99532.25
2023-04-12T05:06:18.946Z,99537.72
2023-04-12T05:08:45.374Z,99526.63
2023-04-12T05:11:11.838Z,99517.09
2023-04-12T05:13:38.272Z,99517.09
2023-04-12T05:16:08.168Z,99526.75
2023-04-12T05:18:34.805Z,99517.91
2023-04-12T05:21:05.367Z,99511.94
2023-04-12T05:23:42.872Z,99515.19
2023-04-12T05:26:09.267Z,99507.38
2023-04-12T05:28:35.676Z,99508.22
2023-04-12T05:31:02.253Z,99510.63
2023-04-12T05:33:29.254Z,99495.22
2023-04-12T05:35:57.136Z,99494.75
2023-04-12T05:38:24.007Z,99492.84
2023-04-12T05:40:50.432Z,99492.47
2023-04-12T05:43:17.763Z,99484.69
2023-04-12T05:45:44.171Z,99478.13
2023-04-12T05:48:11.096Z,99487.22
2023-04-12T05:50:37.655Z,99475.41
2023-04-12T05:53:04.223Z,99473.22
2023-04-12T05:55:30.788Z,99474.06
2023-04-12T05:57:58.571Z,99472.41
2023-04-12T06:00:25.165Z,99471.09
2023-04-12T06:02:52.362Z,99465.59
2023-04-12T06:05:19.458Z,99470.59
2023-04-12T06:07:49.052Z,99466.78
2023-04-12T06:10:17.562Z,99457.94
2023-04-12T06:12:44.987Z,99458.53
2023-04-12T06:15:11.699Z,99449.09
2023-04-12T06:17:38.445Z,99432.13
2023-04-12T06:20:09.721Z,99434.38
2023-04-12T06:22:37.259Z,99429.50
2023-04-12T06:25:04.611Z,99430.34
2023-04-12T06:27:31.413Z,99424.00
2023-04-12T06:29:58.143Z,99422.66
2023-04-12T06:32:25.266Z,99425.28
2023-04-12T06:34:51.906Z,99420.72
2023-04-12T06:37:18.502Z,99410.47
2023-04-12T06:39:44.945Z,99398.13
2023-04-12T06:42:14.019Z,99397.41
2023-04-12T06:44:41.444Z,99406.25
2023-04-12T06:47:08.122Z,99400.75
2023-04-12T06:49:34.830Z,99379.09
2023-04-12T06:52:01.196Z,99388.75
2023-04-12T06:54:27.582Z,99384.69
2023-04-12T06:56:53.974Z,99383.94
2023-04-12T06:59:20.503Z,99373.44
2023-04-12T07:01:46.951Z,99363.63
2023-04-12T07:04:13.754Z,99356.78
2023-04-12T07:06:40.419Z,99363.97
2023-04-12T07:09:06.888Z,99353.81
2023-04-12T07:11:33.393Z,99353.53
2023-04-12T07:13:59.850Z,99352.47
2023-04-12T07:16:26.343Z,99341.69
2023-04-12T07:18:52.837Z,99344.13
2023-04-12T07:21:19.244Z,99331.53
2023-04-12T07:23:47.562Z,99335.97
2023-04-12T07:26:13.979Z,99331.31
2023-04-12T07:28:40.721Z,99329.50
2023-04-12T07:31:07.592Z,99321.00
2023-04-12T07:33:35.986Z,99320.50
2023-04-12T07:36:03.969Z,99301.50
2023-04-12T07:38:30.669Z,99307.34
2023-04-12T07:40:57.134Z,99300.19
2023-04-12T07:43:23.877Z,99291.09
2023-04-12T07:45:50.526Z,99286.44
2023-04-12T07:48:17.121Z,99283.81
2023-04-12T07:50:43.834Z,99270.69
2023-04-12T07:53:26.436Z,99262.44
2023-04-12T07:55:53.485Z,99264.16
2023-04-12T07:58:22.267Z,99256.56
2023-04-12T08:00:49.211Z,99256.31
2023-04-12T08:03:17.610Z,99260.97
2023-04-12T08:05:45.081Z,99262.63
2023-04-12T08:08:12.089Z,99255.81
2023-04-12T08:10:40.823Z,99252.25
2023-04-12T08:13:07.591Z,99250.44
2023-04-12T08:15:34.500Z,99257.94
2023-04-12T08:18:02.167Z,99252.44
2023-04-12T08:20:29.053Z,99250.88
2023-04-12T08:22:55.726Z,99245.47
2023-04-12T08:25:22.498Z,99251.84
2023-04-12T08:27:50.765Z,99246.03
2023-04-12T08:30:18.133Z,99250.78
2023-04-12T08:32:44.852Z,99247.19
2023-04-12T08:35:12.063Z,99240.66
2023-04-12T08:37:38.797Z,99233.81
2023-04-12T08:40:07.409Z,99231.44
2023-04-12T08:42:38.121Z,99222.06
2023-04-12T08:45:06.194Z,99217.41
2023-04-12T08:47:34.773Z,99215.09
2023-04-12T08:50:02.824Z,99230.81
2023-04-12T08:52:29.524Z,99222.31
2023-04-12T08:54:56.304Z,99235.31
2023-04-12T08:57:22.801Z,99228.66
2023-04-12T08:59:51.083Z,99225.13
2023-04-12T09:02:17.614Z,99225.94
2023-04-12T09:04:50.856Z,99221.34
2023-04-12T09:07:17.560Z,99223.50
2023-04-12T09:09:47.790Z,99224.78
2023-04-12T09:12:15.690Z,99210.78
2023-04-12T09:14:45.305Z,99200.44
2023-04-12T09:17:25.462Z,99199.44
2023-04-12T09:19:52.482Z,99196.72
2023-04-12T09:22:19.068Z,99198.97
2023-04-12T09:24:47.424Z,99195.38
2023-04-12T09:27:13.932Z,99189.94
2023-04-12T09:29:40.399Z,99185.34
2023-04-12T09:32:08.641Z,99180.41
2023-04-12T09:34:36.550Z,99186.75
2023-04-12T09:37:17.202Z,99181.78
2023-04-12T09:39:43.791Z,99178.19
2023-04-12T09:42:25.640Z,99176.56
2023-04-12T09:44:58.750Z,99181.00
2023-04-12T09:47:39.376Z,99168.91
2023-04-12T09:50:07.990Z,99175.56
2023-04-12T09:52:38.855Z,99175.66
2023-04-12T09:55:10.745Z,99166.06
2023-04-12T09:57:44.501Z,99176.03
2023-04-12T10:00:14.455Z,99155.94
2023-04-12T10:02:44.913Z,99157.09
2023-04-12T10:05:16.035Z,99153.25
2023-04-12T10:07:43.187Z,99152.47
2023-04-12T10:10:14.227Z,99149.72
2023-04-12T10:12:42.113Z,99148.38
2023-04-12T10:15:13.516Z,99143.44
2023-04-12T10:17:46.387Z,99138.75
2023-04-12T10:20:14.515Z,99136.31
2023-04-12T10:22:53.644Z,99131.97
2023-04-12T10:25:22.916Z,99133.97
2023-04-12T10:27:49.941Z,99132.22
2023-04-12T10:30:28.335Z,99127.06
2023-04-12T10:33:08.333Z,99128.19
2023-04-12T10:36:08.388Z,99132.03
2023-04-12T10:38:47.928Z,99126.50
2023-04-12T10:41:15.934Z,99121.53
2023-04-12T10:43:47.109Z,99122.06
2023-04-12T10:46:45.489Z,99113.50
2023-04-12T10:49:13.652Z,99111.28
2023-04-12T10:52:00.893Z,99107.72
2023-04-12T10:54:27.291Z,99096.13
2023-04-12T10:56:53.757Z,99106.06
2023-04-12T10:59:20.808Z,99097.75
2023-04-12T11:02:13.112Z,99095.84
2023-04-12T11:05:09.869Z,99098.84
2023-04-12T11:07:44.309Z,99092.72
2023-04-12T11:10:15.738Z,99087.72
2023-04-12T11:12:48.053Z,99092.69
2023-04-12T11:15:14.590Z,99098.19
2023-04-12T11:17:41.054Z,99090.69
2023-04-12T11:20:12.241Z,99084.31
2023-04-12T11:22:40.931Z,99079.84
2023-04-12T11:25:07.737Z,99099.19
2023-04-12T11:27:34.587Z,99104.47
2023-04-12T11:30:01.610Z,99091.19
2023-04-12T11:32:30.270Z,99079.84
2023-04-12T11:34:58.191Z,99074.31
2023-04-12T11:37:26.806Z,99077.63
2023-04-12T11:39:55.660Z,99062.91
2023-04-12T11:42:25.345Z,99050.09
2023-04-12T11:44:58.985Z,99059.72
2023-04-12T11:47:27.774Z,99061.06
2023-04-12T11:49:57.129Z,99052.94
2023-04-12T11:52:32.136Z,99063.53
2023-04-12T11:55:05.249Z,99056.97
2023-04-12T11:57:32.077Z,99070.25
2023-04-12T12:00:02.284Z,99068.63
2023-04-12T12:02:32.354Z,99104.72
2023-04-12T12:05:03.583Z,99113.69
2023-04-12T12:07:30.753Z,99117.03
2023-04-12T12:09:57.839Z,99092.72
2023-04-12T12:12:25.102Z,99113.81
2023-04-12T12:14:51.732Z,99102.75
2023-04-12T12:17:18.215Z,99116.00
2023-04-12T12:19:46.141Z,99117.13
2023-04-12T12:22:16.214Z,99117.13
2023-04-12T12:24:58.639Z,99109.41
2023-04-12T12:27:34.549Z,99112.69
2023-04-12T12:30:02.487Z,99094.34
2023-04-12T12:32:33.289Z,99090.88
2023-04-12T12:34:59.807Z,99094.84
2023-04-12T12:37:27.832Z,99108.97
2023-04-12T12:40:28.265Z,99095.94
2023-04-12T12:42:55.942Z,99105.75
2023-04-12T12:45:24.450Z,99100.66
2023-04-12T12:47:53.778Z,99108.28
2023-04-12T12:50:24.741Z,99098.59
2023-04-12T12:52:52.852Z,99099.97
2023-04-12T12:55:21.090Z,99101.16
2023-04-12T12:58:02.141Z,99088.81
2023-04-12T13:00:32.984Z,99084.41
2023-04-12T13:02:59.643Z,99075.19
2023-04-12T13:05:26.492Z,99087.00
2023-04-12T13:07:52.984Z,99065.16
2023-04-12T13:10:19.493Z,99076.69
2023-04-12T13:12:46.112Z,99082.75
2023-04-12T13:15:22.398Z,99087.13
2023-04-12T13:17:52.415Z,99100.16
2023-04-12T13:20:19.121Z,99084.88
2023-04-12T13:22:45.611Z,99094.63
2023-04-12T13:25:12.142Z,99104.44
2023-04-12T13:27:38.597Z,99116.06
2023-04-12T13:30:06.212Z,99118.66
2023-04-12T13:32:32.863Z,99112.06
2023-04-12T13:34:59.400Z,99090.38
2023-04-12T13:37:25.972Z,99096.25
2023-04-12T13:39:52.820Z,99082.88
2023-04-12T13:42:19.435Z,99073.34
2023-04-12T13:44:46.006Z,99064.78
2023-04-12T13:47:12.579Z,99066.00
2023-04-12T13:49:39.035Z,99066.94
2023-04-12T13:52:05.810Z,99074.03
2023-04-12T13:54:32.459Z,99078.63
2023-04-12T13:56:59.360Z,99070.84
2023-04-12T13:59:26.674Z,99081.19
2023-04-12T14:01:53.679Z,99075.50
2023-04-12T14:04:20.562Z,99098.56
2023-04-12T14:06:47.052Z,99112.06
2023-04-12T14:09:30.873Z,99121.31
2023-04-12T14:11:58.476Z,99110.56
2023-04-12T14:14:26.205Z,99109.72
2023-04-12T14:16:56.943Z,99104.28
2023-04-12T14:19:24.101Z,99088.69
2023-04-12T14:21:50.937Z,99090.56
2023-04-12T14:24:18.405Z,99101.84
2023-04-12T14:26:45.315Z,99112.66
2023-04-12T14:29:11.904Z,99097.16
2023-04-12T14:31:38.518Z,99087.91
2023-04-12T14:34:05.513Z,99088.97
2023-04-12T14:36:33.412Z,99089.56
2023-04-12T14:39:01.719Z,99094.03
2023-04-12T14:41:28.373Z,99099.56
2023-04-12T14:43:54.794Z,99090.22
2023-04-12T14:46:21.480Z,99093.66
2023-04-12T14:48:47.970Z,99084.19
2023-04-12T14:51:14.390Z,99077.09
2023-04-12T14:53:42.481Z,99072.00
2023-04-12T14:56:24.554Z,99067.88
2023-04-12T14:58:55.798Z,99074.22
2023-04-12T15:01:23.651Z,99074.47
2023-04-12T15:03:51.830Z,99069.94
2023-04-12T15:06:19.332Z,99079.97
2023-04-12T15:08:46.616Z,99082.53
2023-04-12T15:11:13.432Z,99086.06
2023-04-12T15:13:41.490Z,99087.25
2023-04-12T15:16:09.204Z,99090.31
2023-04-12T15:18:39.327Z,99093.47
2023-04-12T15:21:08.215Z,99093.66
2023-04-12T15:23:39.741Z,99097.31
2023-04-12T15:26:09.438Z,99098.22
2023-04-12T15:28:36.398Z,99101.88
2023-04-12T15:31:02.979Z,99105.41
2023-04-12T15:33:30.229Z,99101.44
2023-04-12T15:35:56.763Z,99112.97
2023-04-12T15:38:26.329Z,99132.09
2023-04-12T15:41:00.641Z,99139.13
2023-04-12T15:43:27.991Z,99164.66
2023-04-12T15:45:54.885Z,99186.69
2023-04-12T15:48:23.172Z,99189.91
2023-04-12T15:50:50.880Z,99191.78
2023-04-12T15:53:20.387Z,99182.16
2023-04-12T15:55:47.652Z,99182.78
2023-04-12T15:58:14.714Z,99189.81
2023-04-12T16:00:41.262Z,99184.16
2023-04-12T16:03:09.086Z,99176.03
2023-04-12T16:05:35.947Z,99198.78
2023-04-12T16:08:02.731Z,99181.22
2023-04-12T16:10:30.225Z,99182.06
2023-04-12T16:12:57.155Z,99185.25
2023-04-12T16:15:23.727Z,99172.84
2023-04-12T16:17:54.375Z,99175.00
2023-04-12T16:20:22.039Z,99164.50
2023-04-12T16:22:54.102Z,99175.59
2023-04-12T16:25:22.381Z,99173.22
2023-04-12T16:27:48.809Z,99183.75
2023-04-12T16:30:15.765Z,99188.88
2023-04-12T16:32:44.989Z,99191.63
2023-04-12T16:35:11.634Z,99211.94
2023-04-12T16:37:38.146Z,99226.56
2023-04-12T16:40:07.982Z,99229.78
2023-04-12T16:42:34.380Z,99273.50
2023-04-12T16:45:00.867Z,99337.75
2023-04-12T16:47:27.371Z,99319.59
2023-04-12T16:49:53.849Z,99280.34
2023-04-12T16:52:20.395Z,99275.38
2023-04-12T16:54:46.867Z,99274.78
2023-04-12T16:57:13.291Z,99274.72
2023-04-12T16:59:42.317Z,99284.13
2023-04-12T17:02:08.789Z,99285.28
2023-04-12T17:04:35.327Z,99305.81
2023-04-12T17:07:02.499Z,99307.50
2023-04-12T17:09:29.296Z,99320.19
2023-04-12T17:11:56.567Z,99330.06
2023-04-12T17:14:23.044Z,99326.97
2023-04-12T17:16:49.488Z,99321.03
2023-04-12T17:19:15.986Z,99314.59
2023-04-12T17:21:42.656Z,99318.38
2023-04-12T17:24:09.366Z,99318.59
2023-04-12T17:26:37.294Z,99319.63
2023-04-12T17:29:04.201Z,99314.03
2023-04-12T17:34:05.990Z,99326.09
2023-04-12T17:36:33.780Z,99335.41
2023-04-12T17:39:04.242Z,99321.31
2023-04-12T17:41:31.392Z,99337.56
2023-04-12T17:43:59.233Z,99337.78
2023-04-12T17:46:26.471Z,99326.13
2023-04-12T17:48:53.295Z,99327.44
2023-04-12T17:51:19.845Z,99334.59
2023-04-12T17:53:46.428Z,99345.84
2023-04-12T17:56:12.903Z,99348.28
2023-04-12T17:58:39.335Z,99352.66
2023-04-12T18:01:06.016Z,99354.25
2023-04-12T18:03:32.585Z,99357.47
2023-04-12T18:05:59.463Z,99349.41
2023-04-12T18:08:25.979Z,99350.19
2023-04-12T18:10:52.443Z,99342.34
2023-04-12T18:13:19.187Z,99354.41
2023-04-12T18:15:46.118Z,99352.63
2023-04-12T18:18:12.695Z,99351.47
2023-04-12T18:20:39.387Z,99357.50
2023-04-12T18:23:05.947Z,99358.50
2023-04-12T18:25:32.358Z,99355.09
2023-04-12T18:27:59.082Z,99361.88
2023-04-12T18:30:25.604Z,99367.59
2023-04-12T18:32:52.158Z,99359.75
2023-04-12T18:35:18.828Z,99364.63
2023-04-12T18:37:45.668Z,99367.81
2023-04-12T18:40:13.189Z,99359.16
2023-04-12T18:42:39.714Z,99356.00
2023-04-12T18:45:06.756Z,99358.31
2023-04-12T18:47:33.305Z,99367.34
2023-04-12T18:49:59.805Z,99371.38
2023-04-12T18:52:26.272Z,99378.69
2023-04-12T18:54:52.756Z,99377.19
2023-04-12T18:57:19.316Z,99385.03
2023-04-12T18:59:47.873Z,99390.09
2023-04-12T19:02:15.194Z,99391.34
2023-04-12T19:04:42.015Z,99391.34
2023-04-12T19:07:08.490Z,99379.69
2023-04-12T19:09:35.012Z,99386.19
2023-04-12T19:12:03.002Z,99390.72
2023-04-12T19:14:30.596Z,99401.03
2023-04-12T19:16:57.380Z,99401.19
2023-04-12T19:19:23.872Z,99402.41
2023-04-12T19:21:50.304Z,99402.78
2023-04-12T19:24:17.398Z,99401.50
2023-04-12T19:26:47.261Z,99409.00
2023-04-12T19:29:18.773Z,99410.84
2023-04-12T19:31:47.573Z,99423.59
2023-04-12T19:34:17.765Z,99409.16
2023-04-12T19:36:44.625Z,99414.31
2023-04-12T19:39:11.262Z,99415.88
2023-04-12T19:41:37.725Z,99406.69
2023-04-12T19:44:04.190Z,99411.22
2023-04-12T19:46:32.646Z,99414.44
2023-04-12T19:48:59.507Z,99418.75
2023-04-12T19:51:26.236Z,99416.13
2023-04-12T19:53:54.688Z,99421.03
2023-04-12T19:56:23.357Z,99419.84
2023-04-12T19:58:50.028Z,99429.13
2023-04-12T20:01:16.551Z,99429.97
2023-04-12T20:03:43.800Z,99429.13
2023-04-12T20:06:10.950Z,99431.50
2023-04-12T20:08:37.879Z,99423.28
2023-04-12T20:11:04.715Z,99431.75
2023-04-12T20:13:31.485Z,99429.25
2023-04-12T20:16:00.705Z,99436.06
2023-04-12T20:18:28.415Z,99435.66
2023-04-12T20:20:57.614Z,99447.38
2023-04-12T20:23:25.427Z,99449.50
2023-04-12T20:25:51.957Z,99448.44
2023-04-12T20:28:18.550Z,99447.97
2023-04-12T20:30:47.910Z,99449.63
2023-04-12T20:33:15.071Z,99447.72
2023-04-12T20:35:42.467Z,99446.41
2023-04-12T20:38:08.982Z,99450.59
2023-04-12T20:40:35.904Z,99453.31
2023-04-12T20:43:03.472Z,99448.69
2023-04-12T20:45:30.102Z,99457.16
2023-04-12T20:47:56.708Z,99457.88
2023-04-12T20:50:24.498Z,99462.75
2023-04-12T20:52:56.154Z,99468.69
2023-04-12T20:55:25.280Z,99470.25
2023-04-12T20:57:55.673Z,99472.63
2023-04-12T21:00:23.528Z,99479.66
2023-04-12T21:02:50.219Z,99474.88
2023-04-12T21:05:18.042Z,99482.50
2023-04-12T21:07:46.916Z,99490.97
2023-04-12T21:10:14.792Z,99482.50
2023-04-12T21:12:42.713Z,99491.34
2023-04-12T21:15:11.683Z,99479.91
2023-04-12T21:17:38.539Z,99487.44
2023-04-12T21:20:11.421Z,99483.94
2023-04-12T21:22:37.935Z,99483.50
2023-04-12T21:25:04.776Z,99475.88
2023-04-12T21:27:31.214Z,99488.53
2023-04-12T21:29:58.139Z,99474.44
2023-04-12T21:32:25.167Z,99484.31
2023-04-12T21:34:51.607Z,99478.03
2023-04-12T21:37:18.077Z,99467.63
2023-04-12T21:39:44.506Z,99466.56
2023-04-12T21:42:11.017Z,99456.81
2023-04-12T21:44:39.606Z,99460.97
2023-04-12T21:47:06.686Z,99452.59
2023-04-12T21:49:34.235Z,99460.84
2023-04-12T21:52:00.669Z,99463.94
2023-04-12T21:54:31.296Z,99463.34
2023-04-12T21:56:58.236Z,99467.78
2023-04-12T21:59:25.682Z,99456.44
2023-04-12T22:01:52.323Z,99453.69
2023-04-12T22:04:19.088Z,99450.97
2023-04-12T22:06:45.448Z,99449.03
2023-04-12T22:09:12.364Z,99457.25
2023-04-12T22:11:39.260Z,99450.13
2023-04-12T22:14:05.686Z,99453.94
2023-04-12T22:16:32.862Z,99458.09
2023-04-12T22:19:00.431Z,99458.34
2023-04-12T22:21:28.231Z,99454.75
2023-04-12T22:23:55.182Z,99449.63
2023-04-12T22:26:21.598Z,99446.53
2023-04-12T22:28:49.689Z,99442.13
2023-04-12T22:31:16.419Z,99446.75
2023-04-12T22:33:43.775Z,99451.53
2023-04-12T22:36:10.409Z,99444.97
2023-04-12T22:38:37.752Z,99442.22
2023-04-12T22:41:04.419Z,99438.50
2023-04-12T22:43:41.989Z,99445.78
2023-04-12T22:46:16.188Z,99437.56
2023-04-12T22:48:43.747Z,99450.66
2023-04-12T22:51:10.929Z,99450.53
2023-04-12T22:53:37.752Z,99447.78
2023-04-12T22:56:04.447Z,99432.88
2023-04-12T22:58:31.339Z,99440.03
2023-04-12T23:00:58.822Z,99440.03
2023-04-12T23:03:25.650Z,99444.69
2023-04-12T23:05:52.437Z,99447.66
2023-04-12T23:08:20.174Z,99443.84
2023-04-12T23:10:46.763Z,99442.53
2023-04-12T23:13:13.377Z,99437.88
2023-04-12T23:15:40.615Z,99430.03
2023-04-12T23:18:10.676Z,99441.63
2023-04-12T23:20:38.384Z,99441.00
2023-04-12T23:23:05.609Z,99433.03
2023-04-12T23:25:40.095Z,99430.28
2023-04-12T23:28:12.549Z,99432.41
2023-04-12T23:30:45.118Z,99428.59
2023-04-12T23:33:12.048Z,99440.28
2023-04-12T23:35:39.649Z,99433.03
2023-04-12T23:38:06.171Z,99412.69
2023-04-12T23:40:33.109Z,99413.25
2023-04-12T23:42:59.526Z,99413.38
2023-04-12T23:45:26.204Z,99414.66
2023-04-12T23:47:56.342Z,99415.97
2023-04-12T23:50:23.475Z,99421.69
2023-04-12T23:52:49.905Z,99411.06
2023-04-12T23:55:16.550Z,99421.66
2023-04-12T23:57:42.943Z,99417.44
